NCAR-RAP Real-Time Weather Data

Output produced by METARs form (17 October 2018  17:15 UTC)
found at http://weather.rap.ucar.edu/surface/
 
RJCC 171700Z 11003KT 9999 FEW020 03/02 Q1014 RMK 1CU020 A2996
RJCC 171630Z VRB01KT 9999 FEW020 SCT060 03/02 Q1014 RMK 1CU020 4CU060 A2997
RJCC 171600Z 17003KT 9999 FEW020 03/02 Q1014 RMK 1CU020 A2996
RJCC 171530Z VRB02KT 9999 FEW020 SCT060 03/03 Q1014 RMK 1CU020 3CU060 A2995
RJCC 171500Z 15003KT 9999 FEW020 BKN060 04/03 Q1014 RMK 1CU020 5CU060 A2995
RJCC 171430Z VRB02KT 9999 FEW020 BKN050 04/03 Q1014 RMK 1CU020 5CU050 A2996
RJCC 171400Z VRB02KT 9999 FEW020 04/03 Q1014 RMK 1CU020 A2997
RJCC 171330Z VRB02KT 9999 FEW020 04/03 Q1014 RMK 1CU020 A2997
RJCC 171300Z 00000KT 9999 FEW020 05/04 Q1014 RMK 1CU020 A2997
RJCC 171230Z 26004KT 9999 FEW020 04/02 Q1014 RMK 1CU020 A2996
RJCC 171200Z 25005KT 9999 FEW020 05/04 Q1014 RMK 1CU020 A2996
RJCC 171130Z 35003KT 9999 FEW020 06/04 Q1014 RMK 1CU020 A2995
RJCC 171100Z VRB02KT 9999 FEW020 08/05 Q1014 RMK 1CU020 A2995
RJCC 171030Z 03004KT 9999 FEW020 BKN050 08/05 Q1014 RMK 1CU020 5CU050 A2995
RJCC 171000Z 03004KT 9999 FEW020 SCT045 09/05 Q1014 RMK 1CU020 3CU045 A2995
RJCC 170930Z 02004KT 9999 FEW020 SCT045 09/05 Q1014 RMK 1CU020 4CU045 A2994
RJCC 170900Z 01005KT 9999 FEW020 SCT045 10/05 Q1013 RMK 1CU020 4CU045 A2994
RJCC 170830Z 36006KT 9999 FEW025 BKN045 11/05 Q1013 RMK 1CU025 5CU045 A2993
RJCC 170800Z 36005KT 9999 FEW025 BKN045 11/05 Q1013 RMK 1CU025 5CU045 A2992
RJCC 170730Z 36006KT 9999 -SHRA FEW025 BKN045 12/05 Q1012 RMK 1CU025 6CU045 A2991
RJCC 170700Z 34008KT 9999 -SHRA FEW025 BKN045 12/03 Q1012 RMK 1CU025 6CU045 A2990
RJCC 170630Z 36005KT 9999 FEW025 BKN050 BKN070 12/03 Q1012 RMK 1CU025 5CU050 6AC070 A2990
RJCC 170600Z 35009KT 9999 FEW025 BKN050 13/04 Q1012 RMK 1CU025 6CU050 A2989
RJCC 170530Z 36009KT 330V030 9999 FEW025 BKN060 13/03 Q1012 RMK 1CU025 6CU060 A2989
RJCC 170500Z 02008KT 340V050 9999 FEW025 BKN060 13/03 Q1011 RMK 1CU025 6CU060 A2988
RJCC 170430Z 02007KT 340V050 9999 FEW025 BKN060 12/03 Q1011 RMK 1CU025 6CU060 A2988
RJCC 170400Z 01008KT 9999 FEW025 BKN060 13/04 Q1011 RMK 1CU025 5CU060 A2988
RJCC 170330Z 01008KT 320V040 9999 FEW020 BKN060 13/02 Q1011 RMK 1CU020 6CU060 A2988
RJCC 170300Z VRB02KT 9999 FEW020 BKN060 13/02 Q1011 RMK 1CU020 6CU060 A2988
RJCC 170230Z 01005KT 330V070 9999 FEW020 BKN050 13/02 Q1012 RMK 1CU020 6CU050 A2989
RJCC 170200Z 35005KT 300V030 9999 FEW020 BKN050 13/01 Q1012 RMK 1CU020 5CU050 A2989
RJCC 170130Z VRB03KT 9999 FEW020 12/01 Q1012 RMK 1CU020 A2990
RJCC 170100Z VRB02KT 9999 FEW020 12/02 Q1012 RMK 1CU020 A2989
RJCC 170030Z VRB02KT 9999 FEW020 11/03 Q1012 RMK 1CU020 A2990
RJCC 170000Z 11004KT 070V140 9999 FEW010 10/04 Q1012 RMK 1ST010 A2991
RJCC 162330Z 14003KT 110V180 9999 FEW010 08/03 Q1012 RMK 1ST010 A2991
RJCC 162300Z 13004KT 9999 PRFG FEW005 06/05 Q1012 RMK 1ST005 A2991 3000SE
RJCC 162230Z VRB02KT 9999 R19R/P2000N R19L/P2000N PRFG FEW003 05/04 Q1012
RJCC 162200Z VRB02KT 9999 R19R/P2000N R19L/P2000N PRFG FEW003 SCT/// 02/02 Q1012
RJCC 162130Z VRB02KT 9999 R19R/P2000N R19L/P2000N PRFG FEW003 BKN/// 01/01 Q1012
RJCC 162100Z VRB01KT 9999 PRFG FEW003 BKN/// 02/02 Q1012 RMK 1ST003 A2989 3000E FG NE-SE
RJCC 162030Z VRB01KT 9999 R19R/P2000N R19L/P2000N PRFG FEW003 SCT/// 02/02 Q1012
RJCC 162000Z 31003KT 270V340 9999 FEW003 SCT/// 02/02 Q1012
RJCC 161930Z 25003KT 9999 FEW003 SCT/// 03/02 Q1012 RMK 1ST003 A2989
RJCC 161900Z VRB01KT 9999 FEW003 SCT/// 03/03 Q1012
RJCC 161830Z 02003KT 9999 FEW003 SCT/// 03/03 Q1012 RMK 1ST003 A2989
RJCC 161800Z 21002KT 9999 FEW003 SCT/// 03/03 Q1012 RMK 1ST003 A2988
RJCC 161730Z 28003KT 150V310 9999 FEW003 04/04 Q1012 RMK 1ST003 A2988
RJCC 161700Z 35003KT 320V030 9999 FEW003 04/04 Q1012 RMK 1ST003 A2989
RJCC 161630Z 25002KT 9999 FEW003 05/05 Q1012 RMK 1ST003 A2989
RJCC 161600Z VRB02KT 9999 R19R/P2000N R19L/1400VP2000D FEW003 06/05 Q1012 RMK 1ST003 A2990
RJCC 161530Z 23003KT 9999 R19R/P2000N R19L/P2000N FEW003 06/06 Q1011
RJCC 161500Z 00000KT 9999 FEW005 07/06 Q1011 RMK 1ST005 A2988
RJCC 161430Z 03005KT 9999 FEW005 SCT080 07/06 Q1012 RMK 1ST005 3AC080 A2989
RJCC 161400Z 07003KT 050V110 9999 FEW005 SCT080 08/06 Q1012 RMK 1ST005 3AC080 A2989
RJCC 161330Z 01006KT 9999 FEW005 SCT050 BKN070 09/07 Q1012 RMK 1ST005 3CU050 7AC070 A2989
RJCC 161300Z 35003KT 9999 FEW005 BKN050 09/08 Q1012 RMK 1ST005 7CU050 A2990
RJCC 161230Z 32005KT 9999 FEW003 BKN045 09/08 Q1012 RMK 1ST003 7CU045 A2990
RJCC 161200Z 35003KT 9999 FEW003 BKN050 09/08 Q1012 RMK 1ST003 6CU050 A2989
RJCC 161130Z 02003KT 350V060 9999 FEW003 SCT050 08/08 Q1012 RMK 1ST003 4CU050 A2989
RJCC 161100Z 32005KT 260V340 9999 FEW003 SCT050 09/08 Q1011 RMK 1ST003 3CU050 A2988
RJCC 161030Z VRB02KT 9999 FEW003 SCT100 08/08 Q1012 RMK 1ST003 3AC100 A2988
RJCC 161000Z 10003KT 070V150 9999 R19R/1600VP2000N R19L/2000D FEW003 08/08 Q1012
RJCC 160948Z 08004KT 050V110 9999 R19R/P2000N R19L/0900VP2000D FEW003 09/08 Q1011 RMK 1ST003 A2988
RJCC 160930Z 24003KT 200V280 9999 FEW003 09/08 Q1012 RMK 1ST003 A2988
RJCC 160900Z 25005KT 9999 R19R/P2000N R19L/P2000N PRFG FEW003 SCT/// 11/09 Q1011 RMK 1ST003 A2988 4000E
RJCC 160830Z 25003KT 190V330 9999 R01L/P2000N R01R/1200VP2000N MIFG FEW005 SCT/// 10/10 Q1011
RJCC 160800Z VRB02KT 9999 FEW005 12/09 Q1011 RMK 1ST005 A2986
RJCC 160730Z VRB02KT 9999 -SHRA FEW005 BKN030 FEW030CB 12/10 Q1011 RMK 1ST005 5CU030 1CB030 A2986 CB 20KM E MOV E
RJCC 160700Z 04003KT 330V080 9999 -SHRA FEW005 BKN030 FEW030CB 12/10 Q1011 RMK 1ST005 6CU030 1CB030 A2987 CB 5KM W AND 20KM E MOV E
RJCC 160635Z 35005KT 310V020 9999 R01L/0900VP2000U R01R/2000N SHRA FEW005 BKN030 FEW030CB 13/10 Q1011 RMK 1ST005 6CU030 2CB030 A2986 CB 5KM NE MOV E
RJCC 160630Z 34007KT 310V020 9999 R01L/0900VP2000D R01R/2000N +TSRA FEW005 BKN030 FEW030CB 13/10 Q1011
RJCC 160625Z 34009KT 9999 R01L/P2000N R01R/P2000N +TSRA FEW010 BKN030 FEW030CB 13/10 Q1011 RMK 1ST010 6CU030 2CB030 A2986 MOD TS OHD MOV E
RJCC 160623Z 34008KT 9999 R01L/P2000N R01R/P2000N TSRA FEW010 BKN030 FEW030CB 13/11 Q1011 RMK 1ST010 6CU030 2CB030 A2986 MOD TS OHD MOV E
RJCC 160608Z 02004KT 360V080 9999 -TSRA FEW010 BKN030 FEW030CB 14/10 Q1011 RMK 1ST010 6CU030 2CB030 A2986 FBL TS 10KM W MOV E
RJCC 160600Z 09003KT 040V220 9999 -SHRA FEW010 BKN030 FEW030CB 14/09 Q1011 RMK 1ST010 6CU030 1CB030 A2986 CB 30KM W MOV E LIGHTNING W
RJCC 160547Z 11004KT 9999 -SHRA FEW015 SCT035 BKN060 15/09 Q1011 RMK 1ST015 3CU035 6CU060 A2985
RJCC 160534Z VRB02KT 9999 R01L/P2000N R01R/P2000N SHRA FEW015 SCT035 BKN060 14/09 Q1011 RMK 1ST015 3CU035 6CU060 A2987
RJCC 160530Z 09003KT 9999 -SHRA FEW015 SCT035 BKN060 14/09 Q1011 RMK 1ST015 3CU035 6CU060 A2986
RJCC 160500Z VRB01KT 9999 FEW020 BKN040 14/08 Q1011 RMK 1CU020 5CU040 A2986
RJCC 160430Z 33003KT 270V360 9999 FEW020 BKN040 14/09 Q1011 RMK 1CU020 5CU040 A2987
RJCC 160400Z 36005KT 310V030 9999 -SHRA FEW020 SCT030 FEW030CB BKN050 13/08 Q1011 RMK 1CU020 3CU030 1CB030 5CU050 A2987 MOD TURB OBS AT 0354Z 20NM E CHE BTN 6000FT AND 10000FT IN CMB DH8D CB 5KM NE MOV NE
RJCC 160330Z 35007KT 320V030 9999 FEW020 SCT030 FEW030CB BKN050 16/07 Q1011 RMK 1CU020 4CU030 1CB030 5CU050 A2988 CB 10KM W MOV NE
RJCC 160316Z 30010KT 9999 FEW020 SCT050 BKN080 15/07 Q1012 RMK 1CU020 4CU050 5AC080 A2989
RJCC 160300Z 36008KT 330V040 9999 FEW020 SCT050 BKN080 15/07 Q1011 RMK 1CU020 4CU050 5AC080 A2988
RJCC 160230Z 34010KT 9999 FEW020 BKN050 15/07 Q1012 RMK 1CU020 5CU050 A2989
RJCC 160200Z 30004KT 270V360 9999 FEW020 BKN050 16/08 Q1012 RMK 1CU020 5CU050 A2990
RJCC 160130Z 35005KT 310V040 9999 FEW020 16/08 Q1013 RMK 1CU020 A2991
RJCC 160100Z 35005KT 300V040 9999 FEW020 SCT050 15/08 Q1013 RMK 1CU020 4CU050 A2993
RJCC 160030Z 36004KT 300V040 9999 FEW020 15/09 Q1013 RMK 1CU020 A2994
RJCC 160000Z 34004KT 290V020 9999 FEW020 14/10 Q1014 RMK 1CU020 A2995
RJCC 152330Z 32003KT 270V360 9999 FEW010 13/10 Q1014 RMK 1ST010 A2995
RJCC 152300Z VRB02KT 9999 FEW005 12/10 Q1014 RMK 1ST005 A2996
RJCC 152230Z 35003KT 9999 PRFG FEW002 11/10 Q1014 RMK 1ST002 A2995 FG E
RJCC 152200Z 03002KT 9999 PRFG FEW002 SCT080 09/09 Q1014 RMK 1ST002 3AC080 A2996 FG NE-E
RJCC 152130Z 33004KT 9999 R01L/P2000N R01R/P2000N PRFG FEW002 BKN080 09/08 Q1014
RJCC 152115Z 34003KT 9999 R19R///// R19L/0350V1300D PRFG FEW002 BKN080 08/08 Q1014 RMK 1ST002 5AC080 A2996 1000NE-E FG NE-E
RJCC 152112Z 34004KT 9999 R19R///// R19L/0350VP2000D PRFG FEW002 BKN080 08/08 Q1014 RMK 1ST002 5AC080 A2996 1000NE-E FG NE-E
RJCC 152111Z 34004KT 9999 R19R///// R19L/0400VP2000D PRFG FEW002 SCT080 08/08 Q1014 RMK 1ST002 4AC080 A2995 1000NE-E FG NE-E
RJCC 152100Z 34004KT 9999 PRFG FEW002 SCT080 08/08 Q1014 RMK 1ST002 4AC080 A2995 2000NE-E FG NE-E
RJCC 152030Z 32006KT 9999 PRFG FEW002 BKN080 08/08 Q1014 RMK 1ST002 5AC080 A2995 FG E
RJCC 152000Z 23002KT 9999 R01L/P2000N R19L/P2000N FEW002 08/07 Q1014
RJCC 151930Z VRB02KT 9999 R01L/P2000N R19L/P2000N FEW001 SCT004 09/08 Q1014
RJCC 151900Z VRB02KT 9999 FEW015 SCT100 09/08 Q1014 RMK 1ST015 4AC100 A2994
RJCC 151830Z 24006KT 9999 -SHRA FEW015 SCT025 BKN050 09/08 Q1014 RMK 1ST015 4CU025 6CU050 A2996
RJCC 151800Z 23003KT 180V250 9999 FEW015 SCT060 BKN100 09/08 Q1014 RMK 1ST015 3CU060 5AC100 A2995
RJCC 151730Z VRB01KT 9999 FEW015 SCT100 09/08 Q1014 RMK 1ST015 3AC100 A2995
RJCC 151700Z 14003KT 9999 FEW015 SCT100 10/08 Q1014 RMK 1ST015 3AC100 A2995
RJCC 151630Z VRB01KT 9999 FEW015 SCT100 09/08 Q1014 RMK 1ST015 4AC100 A2996
RJCC 151600Z 16005KT 9999 FEW015 09/08 Q1014 RMK 1ST015 A2996
RJCC 151530Z 13005KT 9999 FEW015 09/08 Q1014 RMK 1ST015 A2997
RJCC 151500Z 15004KT 9999 FEW015 09/08 Q1014 RMK 1ST015 A2997
RJCC 151430Z 15004KT 9999 FEW015 09/08 Q1015 RMK 1ST015 A2997
RJCC 151400Z 16006KT 9999 FEW015 09/09 Q1015 RMK 1ST015 A2998
RJCC 151330Z 16006KT 9999 FEW015 09/08 Q1015 RMK 1ST015 A2999
RJCC 151300Z 20003KT 9999 FEW015 10/10 Q1015 RMK 1ST015 A3000
RJCC 151230Z 17004KT 9999 R19R/P2000N R19L/P2000N FEW010 10/09 Q1015
RJCC 151200Z 16006KT 9999 FEW015 10/09 Q1015 RMK 1ST015 A2999
RJCC 151130Z 17004KT 9999 FEW015 SCT080 11/10 Q1015 RMK 1ST015 3AC080 A3000
RJCC 151100Z 16005KT 9999 FEW015 SCT080 11/10 Q1016 RMK 1ST015 3AC080 A3000
RJCC 151030Z 15006KT 9999 FEW015 SCT080 11/10 Q1016 RMK 1ST015 4AC080 A3000
RJCC 151000Z 14007KT 9999 FEW015 SCT080 12/11 Q1016 RMK 1ST015 4AC080 A3001
RJCC 150930Z 12006KT 9999 FEW015 SCT090 13/11 Q1016 RMK 1ST015 4AC090 A3001
RJCC 150900Z 13006KT 9999 FEW015 BKN090 14/11 Q1016 RMK 1ST015 5AC090 A3001
RJCC 150830Z 14007KT 9999 FEW015 BKN090 14/11 Q1016 RMK 1ST015 5AC090 A3000
RJCC 150800Z 14008KT 9999 -SHRA FEW015 SCT030 BKN070 14/11 Q1016 RMK 1ST015 3CU030 5AC070 A3001
RJCC 150730Z 15008KT 9999 FEW015 SCT025 15/11 Q1016 RMK 1ST015 4CU025 A3002
RJCC 150700Z 16011KT 9999 FEW015 SCT025 15/11 Q1016 RMK 1ST015 3CU025 A3001
RJCC 150630Z 16011KT 9999 FEW015 SCT025 15/11 Q1016 RMK 1ST015 3CU025 A3000
RJCC 150600Z 17013KT 9999 FEW015 16/10 Q1016 RMK 1ST015 A3000
RJCC 150530Z 16012KT 9999 FEW020 16/10 Q1015 RMK 1CU020 A3000